Cosenza, Italy

6:18 AM CET on December 20, 2014 (GMT +0100)
cosenza | Change Station
CLOSE
Current Station
Personal Weather Station
Location: Cosenza, CALABRIA
Elevation: 886 ft
Nearby Weather Stations

Elev 886 ft 39.31 °N, 16.24 °E | Updated 2 minutes ago

Fog
Fog
48.1 °F
Feels Like 48 °F
N
1.0
Wind Variable Wind from South
Gusts 3.0 mph

Today
High -- | Low -- °F
--% Chance of Precip.
Yesterday
High -- | Low -- °F
Precip. -- in
7:10 AM 4:34 PM
Waning Crescent, 4% visible
Pressure 30.15 in
Visibility -9999.0 miles
Clouds
Windchill 48 °F
Dew Point 42 °F
Humidity 79%
Rainfall 0.00 in
Snow Depth Not available.
UV out of 12
Pollen Not available.
Air Quality Not available.
Flu Activity Not available.
METAR LIBQ 200355Z 30005KT CAVOK 04/M12 Q1021 RMK SKC MON LIB VAL NIL VIS MIN 9999

More Conditions Fewer Conditions

Pressure 30.15 in
Visibility -9999.0 miles
Clouds
Windchill 48 °F
Dew Point 42 °F
Humidity 79%
Rainfall 0.00 in
Snow Depth Not available.
UV out of 12
Pollen Not available.
Air Quality Not available.
Flu Activity Not available.
METAR LIBQ 200355Z 30005KT CAVOK 04/M12 Q1021 RMK SKC MON LIB VAL NIL VIS MIN 9999

More Conditions Fewer Conditions

10-Day Weather Forecast

Almanac

Astronomy

Dec. 20, 2014 Rise Set
Actual Time
Civil Twilight
Nautical Twilight
Astronomical Twilight
Moon
Length of Visible Light
Length of Day
Tomorrow will be .
, % of the Moon is Illuminated

Today's Extremes

Country Highs Country Lows

Community

WunderPhotos

Upload Photos

1,779,137 photos uploaded!

WunderBlogs® & News

Nearby

Air Quality

  Air Quality AQ Index Pollutant
Not available.

Snow Depth

Station Depth Elevation

Earthquake Activity

City Distance Mag. Time & Date
Minimum magnitude displayed is 2.5.

Coastal Water Temperatures

Place Temperature

Nearby Weather Stations